Time;durP1;ratioP1;P1;durP2;ratioP2;P2;SDS_P1;SDS_P2;PMS_P1;PMS_P2;Temp;Humidity;BMP_temperature;BMP_pressure;BME280_temperature;BME280_humidity;BME280_pressure;Samples;Min_cycle;Max_cycle;Signal;HPM_P1;HPM_P2
2023/06/30 00:01:16;;;;;;;4.53;1.75;;;18.20;80.10;;;;;;5088713;28;20439;-69
2023/06/30 00:03:45;;;;;;;4.07;1.60;;;18.20;80.20;;;;;;5084229;28;20391;-69
2023/06/30 00:06:11;;;;;;;3.83;1.38;;;18.20;80.20;;;;;;5102469;28;20025;-69
2023/06/30 00:08:36;;;;;;;4.53;1.80;;;18.10;80.10;;;;;;5100000;28;20024;-69
2023/06/30 00:11:02;;;;;;;3.03;1.40;;;18.10;80.00;;;;;;5079026;28;20107;-69
2023/06/30 00:13:27;;;;;;;5.25;1.50;;;18.00;80.00;;;;;;5079836;28;20145;-69
2023/06/30 00:15:54;;;;;;;3.28;1.55;;;18.00;80.00;;;;;;5085170;28;20035;-69
2023/06/30 00:18:20;;;;;;;3.42;1.40;;;17.90;79.90;;;;;;5078932;28;20012;-69
2023/06/30 00:20:45;;;;;;;4.15;1.60;;;17.90;80.00;;;;;;5084231;28;20034;-69
2023/06/30 00:23:13;;;;;;;3.90;1.60;;;17.90;79.90;;;;;;5081561;28;20032;-69
2023/06/30 00:25:39;;;;;;;2.95;1.45;;;17.90;79.80;;;;;;5079477;28;20146;-69
2023/06/30 00:28:04;;;;;;;5.80;1.77;;;17.90;79.70;;;;;;5076886;28;20102;-69
2023/06/30 00:30:30;;;;;;;3.38;1.67;;;17.80;79.50;;;;;;5082749;28;20054;-68
2023/06/30 00:32:55;;;;;;;3.38;1.50;;;17.80;79.60;;;;;;5078443;28;20386;-69
2023/06/30 00:35:21;;;;;;;2.58;1.40;;;17.70;79.60;;;;;;5082459;28;20052;-68
2023/06/30 00:37:47;;;;;;;2.40;1.30;;;17.60;79.60;;;;;;5081190;28;20035;-68
2023/06/30 00:40:14;;;;;;;3.20;1.40;;;17.60;79.70;;;;;;5081447;28;20024;-69
2023/06/30 00:42:39;;;;;;;4.13;1.50;;;17.60;79.60;;;;;;5083890;28;20072;-69
2023/06/30 00:45:06;;;;;;;3.60;1.75;;;17.50;79.80;;;;;;5076725;28;20025;-69
2023/06/30 00:47:32;;;;;;;2.20;1.33;;;17.50;79.70;;;;;;5079160;28;20028;-69
2023/06/30 00:49:58;;;;;;;4.38;1.73;;;17.50;79.80;;;;;;5077211;28;20120;-69
2023/06/30 00:52:24;;;;;;;3.85;1.48;;;17.50;79.80;;;;;;5084431;28;20127;-69
2023/06/30 00:54:49;;;;;;;4.25;1.52;;;17.50;79.80;;;;;;5079739;28;20024;-69
2023/06/30 00:57:15;;;;;;;3.90;1.30;;;17.50;79.90;;;;;;5086488;28;20523;-69
2023/06/30 00:59:41;;;;;;;2.60;1.33;;;17.50;79.60;;;;;;5082377;28;20130;-69
2023/06/30 01:02:14;;;;;;;3.70;1.30;;;17.50;79.50;;;;;;5081334;28;20123;-69
2023/06/30 01:04:54;;;;;;;3.38;1.33;;;17.50;79.50;;;;;;5082686;28;20020;-69
2023/06/30 01:07:34;;;;;;;1.80;1.33;;;17.40;79.40;;;;;;5078510;28;20020;-68
2023/06/30 01:10:17;;;;;;;2.80;1.55;;;17.40;79.60;;;;;;5076962;28;20070;-69
2023/06/30 01:12:43;;;;;;;2.83;1.30;;;17.30;79.60;;;;;;5079624;28;20112;-68
2023/06/30 01:15:10;;;;;;;3.17;1.40;;;17.30;79.80;;;;;;5081749;28;20024;-69
2023/06/30 01:17:45;;;;;;;4.47;1.60;;;17.20;79.80;;;;;;5078740;28;20040;-69
2023/06/30 01:20:16;;;;;;;3.33;1.30;;;17.20;79.80;;;;;;5081178;28;20102;-68
2023/06/30 01:22:54;;;;;;;2.15;1.20;;;17.20;79.90;;;;;;5079235;28;20028;-68
2023/06/30 01:25:26;;;;;;;3.38;1.48;;;17.20;79.80;;;;;;5080136;28;20020;-68
2023/06/30 01:27:54;;;;;;;4.47;1.60;;;17.10;79.80;;;;;;5078692;28;20039;-68
2023/06/30 01:30:21;;;;;;;2.83;1.60;;;17.10;79.90;;;;;;5089423;28;20028;-68
2023/06/30 01:32:50;;;;;;;5.60;1.88;;;17.10;79.80;;;;;;5089075;28;20118;-68
2023/06/30 01:35:16;;;;;;;4.20;1.65;;;17.10;79.90;;;;;;5089667;28;20666;-68
2023/06/30 01:37:42;;;;;;;4.38;1.75;;;17.00;79.90;;;;;;5086301;28;20024;-68
2023/06/30 01:40:08;;;;;;;4.13;1.70;;;17.00;80.00;;;;;;5098410;28;20612;-68
2023/06/30 01:42:35;;;;;;;4.85;2.10;;;17.00;80.10;;;;;;5080433;28;20016;-69
2023/06/30 01:45:02;;;;;;;4.53;1.90;;;16.90;81.00;;;;;;5079749;28;20097;-69
2023/06/30 01:47:29;;;;;;;2.92;1.58;;;16.90;80.50;;;;;;5082037;28;20122;-68
2023/06/30 01:49:55;;;;;;;2.15;1.60;;;16.90;80.40;;;;;;5089737;28;20386;-68
2023/06/30 01:52:20;;;;;;;3.33;1.50;;;16.80;80.40;;;;;;5095061;28;20052;-68
2023/06/30 01:54:46;;;;;;;4.75;1.60;;;16.80;80.40;;;;;;5086054;28;20070;-68
2023/06/30 01:57:12;;;;;;;3.03;1.70;;;16.80;80.40;;;;;;5084034;28;20025;-68
2023/06/30 01:59:37;;;;;;;2.20;1.45;;;16.80;80.50;;;;;;5081726;28;20431;-68
2023/06/30 02:02:03;;;;;;;5.35;1.75;;;16.80;80.60;;;;;;5085134;28;20036;-68
2023/06/30 02:04:28;;;;;;;3.92;1.90;;;16.70;80.60;;;;;;5085838;28;20140;-69
2023/06/30 02:06:55;;;;;;;3.13;1.90;;;16.70;80.50;;;;;;5082505;28;20043;-68
2023/06/30 02:09:21;;;;;;;2.05;1.50;;;16.70;80.50;;;;;;5096554;28;20103;-68
2023/06/30 02:11:46;;;;;;;3.92;1.80;;;16.60;80.50;;;;;;5097035;28;20546;-68
2023/06/30 02:14:12;;;;;;;3.13;1.60;;;16.60;80.60;;;;;;5089446;28;20028;-67
2023/06/30 02:16:37;;;;;;;3.60;1.60;;;16.60;80.60;;;;;;5081934;28;20031;-67
2023/06/30 02:19:03;;;;;;;2.85;1.73;;;16.60;80.50;;;;;;5082063;28;20107;-68
2023/06/30 02:21:29;;;;;;;4.03;2.00;;;16.60;80.50;;;;;;5089048;28;20411;-68
2023/06/30 02:23:54;;;;;;;3.40;2.10;;;16.50;81.10;;;;;;5086541;28;20053;-68
2023/06/30 02:26:20;;;;;;;5.93;2.25;;;16.50;80.60;;;;;;5085137;28;20035;-68
2023/06/30 02:28:45;;;;;;;4.25;1.98;;;16.50;80.70;;;;;;5094419;28;20058;-68
2023/06/30 02:31:11;;;;;;;3.20;2.08;;;16.40;80.60;;;;;;5070436;28;20043;-69
2023/06/30 02:33:37;;;;;;;5.00;2.08;;;16.40;80.70;;;;;;5075004;28;20027;-68
2023/06/30 02:36:03;;;;;;;3.03;1.75;;;16.30;80.90;;;;;;5071837;28;20074;-69
2023/06/30 02:38:29;;;;;;;3.47;1.90;;;16.30;80.80;;;;;;5088948;28;20089;-68
2023/06/30 02:40:55;;;;;;;4.20;2.45;;;16.30;81.00;;;;;;5088950;28;23547;-68
2023/06/30 02:43:20;;;;;;;4.75;2.25;;;16.20;80.90;;;;;;5086215;28;20084;-68
2023/06/30 02:45:46;;;;;;;3.70;2.00;;;16.20;81.00;;;;;;5088783;28;20069;-68
2023/06/30 02:48:11;;;;;;;3.53;1.90;;;16.20;81.00;;;;;;5088230;28;20664;-68
2023/06/30 02:50:37;;;;;;;5.68;2.42;;;16.20;80.90;;;;;;5080891;28;20035;-69
2023/06/30 02:53:03;;;;;;;3.25;1.77;;;16.10;80.90;;;;;;5084496;28;20021;-68
2023/06/30 02:55:28;;;;;;;2.95;2.00;;;16.10;81.00;;;;;;5081017;28;20420;-68
2023/06/30 02:57:54;;;;;;;3.75;1.80;;;16.10;81.00;;;;;;5078096;28;20096;-68
2023/06/30 03:00:20;;;;;;;4.53;2.20;;;16.10;81.00;;;;;;5083294;28;20028;-68
2023/06/30 03:02:45;;;;;;;3.58;1.90;;;16.10;81.00;;;;;;5084122;28;20103;-68
2023/06/30 03:05:11;;;;;;;2.80;1.95;;;16.00;80.90;;;;;;5091029;28;20376;-68
2023/06/30 03:07:37;;;;;;;2.95;1.70;;;16.00;80.90;;;;;;5083934;28;20482;-68
2023/06/30 03:10:03;;;;;;;2.42;1.50;;;16.00;81.00;;;;;;5082974;28;20025;-68
2023/06/30 03:12:28;;;;;;;2.60;1.70;;;16.00;81.00;;;;;;5087895;28;20028;-67
2023/06/30 03:14:54;;;;;;;2.92;1.70;;;16.00;80.90;;;;;;5093035;28;20027;-67
2023/06/30 03:17:20;;;;;;;2.30;1.60;;;16.00;80.70;;;;;;5086832;28;20134;-68
2023/06/30 03:19:45;;;;;;;3.10;1.83;;;16.00;80.60;;;;;;5085369;28;20040;-67
2023/06/30 03:22:11;;;;;;;3.10;1.80;;;15.90;80.50;;;;;;5100584;28;20024;-68
2023/06/30 03:24:37;;;;;;;2.90;1.80;;;15.80;80.50;;;;;;5087601;28;20027;-68
2023/06/30 03:27:03;;;;;;;2.72;1.63;;;15.80;80.50;;;;;;5089288;28;20513;-68
2023/06/30 03:29:29;;;;;;;4.70;1.77;;;15.80;80.50;;;;;;5092194;28;20394;-67
2023/06/30 03:31:54;;;;;;;2.95;1.60;;;15.80;80.50;;;;;;5092982;28;20020;-67
2023/06/30 03:34:20;;;;;;;3.95;1.75;;;15.80;80.50;;;;;;5081253;28;20347;-72
2023/06/30 03:36:46;;;;;;;2.70;1.70;;;15.70;80.60;;;;;;5088418;28;20033;-68
2023/06/30 03:39:12;;;;;;;2.83;1.70;;;15.70;80.50;;;;;;5084369;28;20036;-67
2023/06/30 03:41:37;;;;;;;3.03;1.75;;;15.70;80.40;;;;;;5089897;28;20067;-67
2023/06/30 03:44:03;;;;;;;4.38;1.88;;;15.70;80.60;;;;;;5083336;28;20460;-67
2023/06/30 03:46:29;;;;;;;2.78;1.55;;;15.70;80.60;;;;;;5080130;28;20086;-67
2023/06/30 03:48:54;;;;;;;2.72;1.60;;;15.70;80.60;;;;;;5085043;28;20059;-68
2023/06/30 03:51:20;;;;;;;2.28;1.60;;;15.70;80.70;;;;;;5081146;28;20324;-68
2023/06/30 03:53:46;;;;;;;2.75;1.65;;;15.70;80.60;;;;;;5085204;28;20016;-68
2023/06/30 03:56:11;;;;;;;3.50;1.70;;;15.60;80.60;;;;;;5086961;28;20027;-69
2023/06/30 03:58:37;;;;;;;2.80;1.77;;;15.60;80.70;;;;;;5088066;28;20042;-68
2023/06/30 04:01:03;;;;;;;3.30;1.70;;;15.60;80.60;;;;;;5085708;28;20081;-68
2023/06/30 04:03:28;;;;;;;1.92;1.48;;;15.60;80.50;;;;;;5084863;28;20024;-68
2023/06/30 04:05:54;;;;;;;4.35;1.58;;;15.70;80.40;;;;;;5082768;28;20032;-68
2023/06/30 04:08:20;;;;;;;2.10;1.52;;;15.70;80.20;;;;;;5085295;28;20024;-69
2023/06/30 04:10:45;;;;;;;3.40;1.60;;;15.70;80.20;;;;;;5085205;28;20035;-68
2023/06/30 04:13:11;;;;;;;2.90;1.30;;;15.70;80.20;;;;;;5095918;28;20025;-68
2023/06/30 04:15:36;;;;;;;3.42;1.30;;;15.70;80.20;;;;;;5086229;28;20371;-69
2023/06/30 04:18:03;;;;;;;3.30;1.58;;;15.70;80.10;;;;;;5089425;28;20737;-68
2023/06/30 04:20:28;;;;;;;2.47;1.60;;;15.70;80.00;;;;;;5084015;28;20023;-68
2023/06/30 04:22:54;;;;;;;2.58;1.50;;;15.70;80.00;;;;;;5084477;28;20059;-68
2023/06/30 04:25:20;;;;;;;2.47;1.50;;;15.80;80.00;;;;;;5087207;28;20112;-68
2023/06/30 04:27:46;;;;;;;2.30;1.60;;;15.80;79.90;;;;;;5087026;28;20575;-68
2023/06/30 04:30:12;;;;;;;2.42;1.33;;;15.80;79.90;;;;;;5082643;28;20364;-68
2023/06/30 04:32:38;;;;;;;3.25;1.50;;;15.80;79.80;;;;;;5081059;28;20030;-68
2023/06/30 04:35:04;;;;;;;2.28;1.60;;;15.80;79.70;;;;;;5086073;28;20047;-68
2023/06/30 04:37:30;;;;;;;2.10;1.33;;;15.80;79.70;;;;;;5084217;28;20052;-68
2023/06/30 04:39:59;;;;;;;2.78;1.40;;;15.80;79.70;;;;;;5082016;28;20020;-68
2023/06/30 04:42:27;;;;;;;1.88;1.40;;;15.90;79.80;;;;;;5083097;28;20024;-69
2023/06/30 04:44:53;;;;;;;3.53;1.58;;;15.90;79.90;;;;;;5084474;28;20021;-69
2023/06/30 04:47:19;;;;;;;3.38;1.40;;;15.90;79.80;;;;;;5090448;28;20116;-68
2023/06/30 04:49:44;;;;;;;3.72;1.50;;;15.90;79.70;;;;;;5088681;28;20498;-68
2023/06/30 04:52:11;;;;;;;2.22;1.35;;;16.00;79.70;;;;;;5090089;28;20027;-68
2023/06/30 04:54:36;;;;;;;3.45;1.30;;;16.10;79.60;;;;;;5075721;28;20017;-67
2023/06/30 04:57:02;;;;;;;2.63;1.45;;;16.50;79.00;;;;;;5085536;28;20028;-68
2023/06/30 04:59:27;;;;;;;4.28;1.50;;;17.00;77.60;;;;;;5086555;28;20034;-67
2023/06/30 05:01:53;;;;;;;2.47;1.20;;;17.60;76.30;;;;;;5088075;28;20410;-68
2023/06/30 05:04:19;;;;;;;1.63;1.25;;;18.00;74.90;;;;;;5075365;28;20090;-69
2023/06/30 05:06:44;;;;;;;2.40;1.40;;;18.50;73.70;;;;;;5071357;28;20021;-68
2023/06/30 05:09:10;;;;;;;2.35;1.30;;;18.80;72.50;;;;;;5082256;28;20460;-68
2023/06/30 05:11:36;;;;;;;2.97;1.35;;;19.20;71.70;;;;;;5099172;28;20073;-67
2023/06/30 05:14:01;;;;;;;2.85;1.30;;;19.50;70.90;;;;;;5089114;28;20068;-68
2023/06/30 05:16:27;;;;;;;3.25;1.38;;;19.70;70.10;;;;;;5072792;28;20031;-67
2023/06/30 05:18:52;;;;;;;2.65;1.35;;;19.90;69.60;;;;;;5075489;28;20020;-67
2023/06/30 05:21:18;;;;;;;2.08;1.20;;;20.20;69.10;;;;;;5081068;28;20058;-68
2023/06/30 05:23:44;;;;;;;2.83;1.20;;;20.50;68.40;;;;;;5089794;28;20039;-68
2023/06/30 05:26:10;;;;;;;1.75;1.20;;;20.70;67.90;;;;;;5084988;28;20432;-68
2023/06/30 05:28:36;;;;;;;1.98;1.20;;;20.90;67.50;;;;;;5081877;28;20081;-67
2023/06/30 05:31:02;;;;;;;2.67;1.30;;;21.10;67.00;;;;;;5080588;28;20028;-68
2023/06/30 05:33:27;;;;;;;2.85;1.35;;;21.20;66.70;;;;;;5089779;28;20448;-67
2023/06/30 05:35:53;;;;;;;3.92;1.42;;;21.20;66.70;;;;;;5096929;28;20094;-68
2023/06/30 05:38:19;;;;;;;3.55;1.50;;;21.30;66.60;;;;;;5088758;28;20035;-68
2023/06/30 05:40:44;;;;;;;3.42;1.40;;;21.30;66.60;;;;;;5079095;28;20387;-69
2023/06/30 05:43:10;;;;;;;2.65;1.30;;;21.30;66.80;;;;;;5084594;28;20024;-68
2023/06/30 05:45:37;;;;;;;3.00;1.35;;;21.20;67.00;;;;;;5084387;28;20439;-68
2023/06/30 05:48:02;;;;;;;2.63;1.30;;;21.20;66.90;;;;;;5087284;28;20032;-68
2023/06/30 05:50:28;;;;;;;2.80;1.23;;;21.10;67.10;;;;;;5083373;28;20030;-68
2023/06/30 05:52:54;;;;;;;3.03;1.25;;;21.00;67.50;;;;;;5083606;28;20141;-68
2023/06/30 05:55:20;;;;;;;2.80;1.33;;;20.90;67.70;;;;;;5078880;28;21354;-68
2023/06/30 05:57:46;;;;;;;1.63;1.20;;;20.70;68.00;;;;;;5084560;28;20088;-69
2023/06/30 06:00:13;;;;;;;3.40;1.20;;;20.60;68.30;;;;;;5090279;28;20020;-69
2023/06/30 06:02:38;;;;;;;2.83;1.60;;;20.60;68.60;;;;;;5086401;28;20051;-68
2023/06/30 06:05:04;;;;;;;3.15;1.52;;;20.40;68.70;;;;;;5090888;28;20549;-68
2023/06/30 06:07:30;;;;;;;2.63;1.50;;;20.30;69.00;;;;;;5082211;28;20031;-70
2023/06/30 06:09:55;;;;;;;2.08;1.40;;;20.10;69.40;;;;;;5096969;28;20030;-68
2023/06/30 06:12:21;;;;;;;3.47;1.67;;;20.00;69.60;;;;;;5091481;28;20359;-71
2023/06/30 06:14:47;;;;;;;3.30;1.30;;;20.00;69.80;;;;;;5077223;28;20027;-70
2023/06/30 06:17:12;;;;;;;3.38;1.50;;;20.00;69.80;;;;;;5081271;28;20088;-69
2023/06/30 06:19:38;;;;;;;3.33;1.35;;;19.90;69.60;;;;;;5078654;28;20067;-67
2023/06/30 06:22:04;;;;;;;2.72;1.35;;;20.00;69.80;;;;;;5082007;28;20027;-68
2023/06/30 06:24:29;;;;;;;1.63;1.40;;;20.10;69.60;;;;;;5079924;28;20039;-69
2023/06/30 06:26:55;;;;;;;2.80;1.27;;;20.20;69.50;;;;;;5081810;28;20025;-68
2023/06/30 06:29:24;;;;;;;3.65;1.48;;;20.30;69.20;;;;;;5085219;28;20063;-69
2023/06/30 06:31:50;;;;;;;2.53;1.40;;;20.40;68.80;;;;;;5084123;28;20032;-69
2023/06/30 06:34:18;;;;;;;3.17;1.40;;;20.50;68.60;;;;;;5070164;28;20537;-68
2023/06/30 06:36:44;;;;;;;3.08;1.55;;;20.60;68.30;;;;;;5074591;28;20498;-68
2023/06/30 06:39:10;;;;;;;2.22;1.38;;;20.70;68.00;;;;;;5079016;28;20020;-69
2023/06/30 06:41:36;;;;;;;4.63;1.70;;;20.70;67.80;;;;;;5087962;28;20377;-69
2023/06/30 06:44:01;;;;;;;3.35;1.50;;;20.70;67.20;;;;;;5079864;28;20024;-68
2023/06/30 06:46:28;;;;;;;3.80;1.70;;;20.60;67.10;;;;;;5078171;28;20036;-69
2023/06/30 06:48:54;;;;;;;3.40;1.55;;;20.60;67.30;;;;;;5078053;28;20025;-68
2023/06/30 06:51:20;;;;;;;2.28;1.30;;;20.80;67.20;;;;;;5084600;28;20082;-68
2023/06/30 06:53:46;;;;;;;3.75;1.40;;;20.90;67.00;;;;;;5091019;28;20024;-69
2023/06/30 06:56:11;;;;;;;2.38;1.40;;;21.10;66.70;;;;;;5078877;28;20035;-69
2023/06/30 06:58:40;;;;;;;3.10;1.45;;;21.20;66.20;;;;;;5078085;28;20076;-68
2023/06/30 07:01:06;;;;;;;3.47;1.55;;;21.20;65.90;;;;;;5078824;28;20085;-69
2023/06/30 07:03:32;;;;;;;3.80;1.50;;;21.30;65.90;;;;;;5077463;28;20437;-69
2023/06/30 07:05:58;;;;;;;2.67;1.75;;;21.30;65.60;;;;;;5085685;28;20036;-69
2023/06/30 07:08:24;;;;;;;2.42;1.20;;;21.40;65.50;;;;;;5080729;28;20016;-69
2023/06/30 07:10:51;;;;;;;2.28;1.10;;;21.60;65.20;;;;;;5078939;28;20600;-68
2023/06/30 07:13:18;;;;;;;3.15;1.20;;;21.70;64.80;;;;;;5084839;28;20467;-69
2023/06/30 07:15:45;;;;;;;2.45;1.20;;;21.80;64.60;;;;;;5081178;28;20024;-68
2023/06/30 07:18:11;;;;;;;3.55;1.30;;;22.00;64.20;;;;;;5082354;28;20109;-68
2023/06/30 07:20:37;;;;;;;2.70;1.25;;;22.00;62.90;;;;;;5083639;28;20111;-68
2023/06/30 07:23:02;;;;;;;2.45;1.20;;;22.00;62.60;;;;;;5084745;28;20526;-69
2023/06/30 07:25:28;;;;;;;3.72;1.20;;;21.90;62.30;;;;;;5081591;28;20040;-69
2023/06/30 07:27:56;;;;;;;3.33;1.15;;;21.90;62.10;;;;;;5076418;28;20107;-69
2023/06/30 07:30:27;;;;;;;3.45;1.27;;;22.00;62.00;;;;;;5080300;28;20031;-69
2023/06/30 07:32:53;;;;;;;2.63;0.90;;;22.10;61.50;;;;;;5083200;28;20066;-68
2023/06/30 07:35:20;;;;;;;1.95;1.00;;;22.10;61.30;;;;;;5082781;28;20102;-69
2023/06/30 07:37:46;;;;;;;1.95;1.00;;;22.10;60.70;;;;;;5076997;28;20028;-68
2023/06/30 07:40:12;;;;;;;1.23;0.90;;;22.20;60.40;;;;;;5083338;28;20032;-68
2023/06/30 07:42:39;;;;;;;2.25;1.10;;;22.40;60.00;;;;;;5087032;28;20016;-68
2023/06/30 07:45:09;;;;;;;1.50;0.85;;;22.50;59.60;;;;;;5079952;28;20035;-68
2023/06/30 07:47:36;;;;;;;1.58;0.82;;;22.70;59.20;;;;;;5083405;28;20055;-68
2023/06/30 07:50:12;;;;;;;2.13;0.90;;;23.00;59.00;;;;;;5087378;28;20024;-68
2023/06/30 07:52:47;;;;;;;1.80;0.80;;;23.10;58.30;;;;;;5079910;28;20065;-67
2023/06/30 07:55:16;;;;;;;1.55;0.90;;;23.20;58.20;;;;;;5081956;28;20463;-68
2023/06/30 07:57:43;;;;;;;2.40;1.00;;;23.20;57.50;;;;;;5076399;28;20479;-68
2023/06/30 08:00:10;;;;;;;1.52;0.90;;;23.10;57.30;;;;;;5082329;28;20024;-69
2023/06/30 08:02:36;;;;;;;2.05;0.90;;;23.20;57.40;;;;;;5081007;28;20024;-67
2023/06/30 08:05:03;;;;;;;1.92;0.90;;;23.30;57.00;;;;;;5087116;28;20123;-68
2023/06/30 08:07:29;;;;;;;1.55;0.95;;;23.20;56.50;;;;;;5086253;28;20020;-68
2023/06/30 08:09:54;;;;;;;2.42;1.10;;;23.30;56.70;;;;;;5085338;28;20077;-67
2023/06/30 08:12:20;;;;;;;2.45;1.15;;;23.10;56.10;;;;;;5076898;28;20035;-68
2023/06/30 08:14:48;;;;;;;1.38;0.88;;;23.10;56.10;;;;;;5082062;28;20032;-68
2023/06/30 08:17:16;;;;;;;1.25;0.90;;;23.30;56.20;;;;;;5088660;28;20020;-68
2023/06/30 08:19:42;;;;;;;2.08;1.00;;;23.30;55.80;;;;;;5093341;28;20031;-69
2023/06/30 08:22:09;;;;;;;1.83;0.90;;;23.30;55.30;;;;;;5087269;28;20024;-68
2023/06/30 08:24:35;;;;;;;1.55;1.00;;;23.20;55.30;;;;;;5083965;28;20036;-68
2023/06/30 08:27:01;;;;;;;1.98;1.08;;;23.20;55.60;;;;;;5088295;28;20028;-69
2023/06/30 08:29:26;;;;;;;1.83;0.98;;;23.30;55.00;;;;;;5087971;28;20119;-68
2023/06/30 08:31:54;;;;;;;1.50;0.80;;;23.40;54.70;;;;;;5080991;28;20081;-69
2023/06/30 08:34:23;;;;;;;1.35;1.00;;;23.50;54.20;;;;;;5087432;28;20039;-68
2023/06/30 08:36:49;;;;;;;1.40;0.90;;;23.60;53.90;;;;;;5085376;28;20036;-69
2023/06/30 08:39:15;;;;;;;0.90;0.70;;;23.60;53.60;;;;;;5087791;28;20655;-69
2023/06/30 08:41:42;;;;;;;2.10;0.80;;;23.90;53.70;;;;;;5090313;28;20078;-68
2023/06/30 08:44:08;;;;;;;1.15;0.80;;;24.10;53.10;;;;;;5088591;28;20020;-67
2023/06/30 08:46:34;;;;;;;1.75;0.80;;;24.20;52.90;;;;;;5084456;28;20101;-68
2023/06/30 08:49:00;;;;;;;2.72;0.98;;;24.30;52.30;;;;;;5084354;28;20062;-69
2023/06/30 08:51:25;;;;;;;1.42;0.70;;;24.20;52.30;;;;;;5082564;28;20032;-69
2023/06/30 08:53:53;;;;;;;1.58;0.80;;;24.30;52.30;;;;;;5087626;28;20025;-69
2023/06/30 08:56:20;;;;;;;1.20;0.85;;;24.40;51.60;;;;;;5086816;28;20359;-69
2023/06/30 08:58:45;;;;;;;0.98;0.73;;;24.20;50.70;;;;;;5086184;28;20024;-69
2023/06/30 09:01:13;;;;;;;1.58;0.70;;;24.20;51.00;;;;;;5084391;28;20031;-69
2023/06/30 09:03:39;;;;;;;1.75;0.73;;;24.20;50.70;;;;;;5079975;28;20016;-68
2023/06/30 09:06:05;;;;;;;1.95;0.80;;;24.30;50.40;;;;;;5083507;28;20629;-69
2023/06/30 09:09:03;;;;;;;1.67;0.80;;;24.30;50.50;;;;;;5084180;28;20027;-68
2023/06/30 09:11:30;;;;;;;1.52;0.80;;;24.30;49.90;;;;;;5081909;28;21208;-69
2023/06/30 09:14:01;;;;;;;1.25;0.80;;;24.50;50.20;;;;;;5079357;28;20065;-69
2023/06/30 09:16:30;;;;;;;1.20;0.75;;;24.60;49.70;;;;;;5081192;28;20035;-69
2023/06/30 09:18:56;;;;;;;1.08;0.70;;;24.80;49.90;;;;;;5086315;28;20035;-69
2023/06/30 09:21:22;;;;;;;2.35;0.80;;;25.00;49.80;;;;;;5086139;28;20023;-69
2023/06/30 09:23:48;;;;;;;1.50;0.90;;;25.10;49.40;;;;;;5087522;28;20044;-69
2023/06/30 09:26:15;;;;;;;0.88;0.75;;;25.20;49.10;;;;;;5086431;28;20533;-69
2023/06/30 09:28:44;;;;;;;2.05;0.90;;;25.30;48.60;;;;;;5084056;28;20074;-69
2023/06/30 09:31:11;;;;;;;1.42;0.65;;;25.10;47.60;;;;;;5080074;28;20459;-68
2023/06/30 09:33:39;;;;;;;1.27;0.82;;;25.10;48.30;;;;;;5088336;28;20077;-68
2023/06/30 09:36:04;;;;;;;1.13;0.80;;;25.10;48.50;;;;;;5085229;28;20458;-68
2023/06/30 09:38:30;;;;;;;1.58;1.00;;;25.10;48.20;;;;;;5090334;28;20099;-69
2023/06/30 09:40:56;;;;;;;1.35;0.80;;;25.10;48.20;;;;;;5088242;28;20024;-69
2023/06/30 09:43:24;;;;;;;1.85;0.80;;;25.20;48.00;;;;;;5078867;28;20059;-69
2023/06/30 09:46:00;;;;;;;1.23;0.80;;;25.20;48.10;;;;;;5077387;28;20032;-69
2023/06/30 09:48:35;;;;;;;3.25;1.38;;;25.30;47.80;;;;;;5080373;28;20042;-69
2023/06/30 09:51:01;;;;;;;1.75;1.10;;;25.10;47.00;;;;;;5085252;28;20043;-69
2023/06/30 09:53:34;;;;;;;2.58;1.23;;;24.90;46.80;;;;;;5085236;28;20017;-69
2023/06/30 09:56:00;;;;;;;1.05;0.90;;;24.80;47.60;;;;;;5080755;28;20029;-69
2023/06/30 09:58:26;;;;;;;1.80;1.00;;;24.90;47.70;;;;;;5085039;28;20035;-69
2023/06/30 10:00:51;;;;;;;1.73;1.02;;;24.80;47.20;;;;;;5076890;28;20487;-69
2023/06/30 10:03:18;;;;;;;2.28;1.15;;;24.90;47.40;;;;;;5076183;28;20043;-69
2023/06/30 10:05:45;;;;;;;1.00;0.80;;;24.90;47.50;;;;;;5097394;28;20027;-69
2023/06/30 10:08:12;;;;;;;3.05;1.10;;;24.90;47.30;;;;;;5078290;28;20032;-69
2023/06/30 10:10:41;;;;;;;1.55;1.02;;;24.90;47.90;;;;;;5081791;28;20053;-69
2023/06/30 10:13:07;;;;;;;1.60;0.70;;;25.00;47.20;;;;;;5079132;28;20025;-69
2023/06/30 10:15:33;;;;;;;1.50;1.02;;;25.00;47.30;;;;;;5079198;28;20027;-69
2023/06/30 10:17:59;;;;;;;1.40;0.90;;;25.10;47.70;;;;;;5080801;28;20024;-69
2023/06/30 10:20:25;;;;;;;1.70;0.90;;;25.10;47.70;;;;;;5084000;28;20071;-69
2023/06/30 10:22:52;;;;;;;2.90;0.90;;;25.00;47.70;;;;;;5084689;28;20063;-69
2023/06/30 10:25:20;;;;;;;1.10;0.80;;;25.00;47.80;;;;;;5092149;28;20028;-69
2023/06/30 10:27:48;;;;;;;1.20;0.77;;;25.00;47.90;;;;;;5083070;28;20028;-69
2023/06/30 10:30:14;;;;;;;0.88;0.80;;;24.90;48.20;;;;;;5080579;28;20122;-69
2023/06/30 10:32:40;;;;;;;1.27;0.90;;;24.90;48.40;;;;;;5085067;28;20016;-69
2023/06/30 10:35:08;;;;;;;3.72;1.40;;;24.90;48.10;;;;;;5089625;28;20035;-69
2023/06/30 10:37:35;;;;;;;2.15;1.02;;;25.00;47.90;;;;;;5081830;28;20494;-69
2023/06/30 10:40:00;;;;;;;2.35;0.80;;;24.90;48.10;;;;;;5077220;28;20049;-69
2023/06/30 10:42:26;;;;;;;1.40;0.95;;;25.10;48.40;;;;;;5079044;28;20107;-69
2023/06/30 10:44:59;;;;;;;1.67;1.00;;;25.10;48.10;;;;;;5080154;28;20103;-69
2023/06/30 10:47:27;;;;;;;1.88;1.00;;;25.10;48.00;;;;;;5082008;28;20107;-69
2023/06/30 10:49:54;;;;;;;2.13;0.93;;;25.10;48.00;;;;;;5082790;28;20021;-69
2023/06/30 10:52:29;;;;;;;1.35;1.00;;;25.00;48.10;;;;;;5081247;28;20028;-69
2023/06/30 10:55:03;;;;;;;3.97;1.38;;;25.00;48.30;;;;;;5081020;28;20024;-69
2023/06/30 10:57:35;;;;;;;2.40;1.23;;;25.10;48.30;;;;;;5074354;28;20024;-69
2023/06/30 11:00:14;;;;;;;2.67;1.30;;;25.20;47.80;;;;;;5079138;28;20142;-69
2023/06/30 11:02:57;;;;;;;2.05;1.10;;;25.40;47.70;;;;;;5075235;28;20024;-69
2023/06/30 11:05:32;;;;;;;1.73;1.05;;;25.50;47.70;;;;;;5080408;28;20027;-69
2023/06/30 11:08:07;;;;;;;2.13;1.20;;;25.60;47.50;;;;;;5083263;28;20032;-69
2023/06/30 11:10:32;;;;;;;1.42;1.00;;;25.80;47.30;;;;;;5083220;28;20089;-69
2023/06/30 11:13:03;;;;;;;1.45;1.10;;;25.90;47.00;;;;;;5084593;28;20028;-69
2023/06/30 11:15:35;;;;;;;2.15;1.10;;;26.00;46.80;;;;;;5084671;28;20024;-69
2023/06/30 11:18:14;;;;;;;2.40;0.90;;;26.10;46.60;;;;;;5079141;28;20563;-70
2023/06/30 11:20:59;;;;;;;2.33;1.00;;;26.20;47.10;;;;;;5084611;28;20024;-69
2023/06/30 11:23:28;;;;;;;2.17;1.00;;;26.30;46.60;;;;;;5089165;28;20036;-69
2023/06/30 11:25:57;;;;;;;3.13;1.10;;;26.20;46.20;;;;;;5078763;28;20043;-69
2023/06/30 11:28:26;;;;;;;2.13;1.10;;;26.20;46.10;;;;;;5078806;28;20031;-69
2023/06/30 11:30:52;;;;;;;2.63;1.15;;;26.30;46.20;;;;;;5089194;28;20036;-69
2023/06/30 11:33:18;;;;;;;2.65;0.90;;;26.50;45.80;;;;;;5085655;28;20093;-69
2023/06/30 11:35:52;;;;;;;1.85;1.30;;;26.60;45.90;;;;;;5085655;28;20425;-69
2023/06/30 11:38:18;;;;;;;2.55;1.23;;;26.50;44.50;;;;;;5087668;28;20017;-69
2023/06/30 11:40:45;;;;;;;2.35;1.05;;;26.40;45.30;;;;;;5081395;28;20580;-69
2023/06/30 11:43:11;;;;;;;2.30;0.88;;;26.30;45.20;;;;;;5082217;28;20039;-69
2023/06/30 11:45:38;;;;;;;2.30;1.10;;;26.40;45.60;;;;;;5087861;28;20351;-69
2023/06/30 11:48:05;;;;;;;2.60;0.98;;;26.50;45.60;;;;;;5090085;28;20048;-69
2023/06/30 11:50:30;;;;;;;2.08;1.10;;;26.50;45.60;;;;;;5086987;28;20569;-68
2023/06/30 11:52:56;;;;;;;1.40;1.05;;;26.60;45.10;;;;;;5086729;28;20073;-69
2023/06/30 11:55:23;;;;;;;1.55;1.10;;;26.70;45.10;;;;;;5087734;28;20470;-69
2023/06/30 11:57:50;;;;;;;1.65;1.20;;;26.70;45.30;;;;;;5083477;28;20020;-69
2023/06/30 12:00:19;;;;;;;1.00;0.93;;;26.60;45.10;;;;;;5089100;28;20085;-69
2023/06/30 12:02:46;;;;;;;3.72;1.40;;;26.60;45.20;;;;;;5083867;28;20044;-68
2023/06/30 12:05:17;;;;;;;2.28;1.20;;;26.60;44.70;;;;;;5084712;28;20022;-69
2023/06/30 12:07:45;;;;;;;2.63;1.30;;;26.70;44.80;;;;;;5087346;28;20541;-68
2023/06/30 12:10:12;;;;;;;1.48;1.10;;;26.80;44.60;;;;;;5081873;28;20081;-69
2023/06/30 12:12:38;;;;;;;1.25;1.00;;;26.70;44.70;;;;;;5083954;28;20012;-70
2023/06/30 12:15:07;;;;;;;2.30;1.38;;;26.90;45.00;;;;;;5088038;28;21165;-70
2023/06/30 12:17:43;;;;;;;3.10;1.45;;;26.90;44.10;;;;;;5088696;28;20035;-69
2023/06/30 12:20:10;;;;;;;3.45;1.52;;;27.00;44.00;;;;;;5089346;28;20058;-69
2023/06/30 12:22:41;;;;;;;1.50;1.38;;;27.00;44.00;;;;;;5083363;28;20689;-70
2023/06/30 12:25:11;;;;;;;2.67;1.00;;;26.90;44.00;;;;;;5087498;28;20351;-69
2023/06/30 12:27:41;;;;;;;3.60;1.30;;;27.00;44.30;;;;;;5087700;28;20369;-70
2023/06/30 12:30:17;;;;;;;1.40;1.08;;;27.00;43.80;;;;;;5086069;28;20035;-68
2023/06/30 12:32:43;;;;;;;1.90;1.42;;;27.10;43.90;;;;;;5102446;27;20024;-68
2023/06/30 12:35:10;;;;;;;1.98;1.30;;;27.30;44.20;;;;;;5089219;28;20030;-69
2023/06/30 12:37:36;;;;;;;1.65;1.00;;;27.40;43.40;;;;;;5083930;28;20046;-70
2023/06/30 12:40:03;;;;;;;2.13;1.30;;;27.60;43.40;;;;;;5086289;28;20032;-69
2023/06/30 12:42:31;;;;;;;2.38;1.20;;;27.60;43.70;;;;;;5088192;28;20044;-69
2023/06/30 12:44:57;;;;;;;1.75;1.23;;;27.70;43.10;;;;;;5088660;28;20031;-69
2023/06/30 12:47:23;;;;;;;2.40;1.50;;;27.80;43.00;;;;;;5085405;28;20024;-70